Gossett, Illinois
Current Conditions -  °F | °C
As of 9:58 AM on Sunday 25 Jan 2015 (Local Time) from KCUL Reporting Station
Moderate Rain Moderate Rain  
Wind Chill:   Ceiling: 4000
Heat Index:   Visibility: 5mi
Dew Point:   Wind: 6mph
Humidity: 93%   Direction: 130°SE
Pressure: 29.63"   Gusts: NA
Location:  37.9739°N, 88.3193°W
Report Text: KCUL 251558Z AUTO 13005KT 5SM RA SCT032 OVC040 06/05 A2963 RMK AO2 P0001
Loading
Personal Weather Stations






























Interactive Weather Map New forecast layout! Learn more

10-Day Weather Forecast

Advertisements
Track Severe Weather on mobile